Terminal Aerodrome Forecast
Issued by NWS Buffalo, NY

Home | Current Version | Previous Version | Text Only | Print | Product List | Glossary On
Versions: 1 2 3 4 5 6 7 8 9 10 11 12 13 14 15 16 17 18 19 20 21 22 23 24 25 26 27 28 29 30
000
FTUS41 KBUF 282133 AAA
TAFBUF
TAF AMD
KBUF 282133Z 2822/2918 25008KT P6SM FEW045 SCT300
     FM290100 21004KT P6SM SCT035 SCT250
     FM290500 17005KT P6SM SCT250
     FM291500 24006KT P6SM BKN045
     FM291600 24006KT P6SM BKN130=

USA.gov is the U.S. government's official web portal to all federal, state and local government web resources and services.